createdAt,value
2023-05-19T00:00:27.777Z,0.4587
2023-05-19T00:01:35.813Z,0.4594
2023-05-19T00:02:44.112Z,0.4658
2023-05-19T00:03:52.069Z,0.4944
2023-05-19T00:05:00.145Z,0.4817
2023-05-19T00:06:08.276Z,0.4826
2023-05-19T00:07:16.238Z,0.4804
2023-05-19T00:08:24.314Z,0.4698
2023-05-19T00:09:32.389Z,0.4582
2023-05-19T00:10:40.435Z,0.4718
2023-05-19T00:11:48.664Z,0.4811
2023-05-19T00:12:56.565Z,0.4881
2023-05-19T00:14:04.472Z,0.4825
2023-05-19T00:15:12.535Z,0.4895
2023-05-19T00:16:20.648Z,0.4788
2023-05-19T00:17:28.876Z,0.4643
2023-05-19T00:18:36.868Z,0.4384
2023-05-19T00:19:44.913Z,0.4439
2023-05-19T00:20:52.959Z,0.4583
2023-05-19T00:22:01.117Z,0.4536
2023-05-19T00:23:09.238Z,0.4507
2023-05-19T00:24:17.330Z,0.4592
2023-05-19T00:25:25.301Z,0.4739
2023-05-19T00:26:33.358Z,0.4718
2023-05-19T00:27:41.421Z,0.4718
2023-05-19T00:28:49.401Z,0.4769
2023-05-19T00:29:57.470Z,0.4936
2023-05-19T00:31:05.460Z,0.4725
2023-05-19T00:32:13.745Z,0.4762
2023-05-19T00:33:21.759Z,0.4737
2023-05-19T00:34:29.905Z,0.4854
2023-05-19T00:35:37.999Z,0.4761
2023-05-19T00:36:45.922Z,0.4754
2023-05-19T00:37:54.009Z,0.4887
2023-05-19T00:39:02.086Z,0.4849
2023-05-19T00:40:10.197Z,0.4886
2023-05-19T00:41:18.189Z,0.4911
2023-05-19T00:42:26.384Z,0.4931
2023-05-19T00:43:34.205Z,0.4950
2023-05-19T00:44:42.231Z,0.4963
2023-05-19T00:45:50.377Z,0.5021
2023-05-19T00:46:58.570Z,0.4908
2023-05-19T00:48:06.643Z,0.4622
2023-05-19T00:49:14.611Z,0.4656
2023-05-19T00:50:22.722Z,0.4681
2023-05-19T00:51:30.812Z,0.4603
2023-05-19T00:52:38.815Z,0.4646
2023-05-19T00:53:46.898Z,0.4696
2023-05-19T00:54:54.957Z,0.4653
2023-05-19T00:56:03.072Z,0.4816
2023-05-19T00:57:11.210Z,0.4821
2023-05-19T00:58:18.987Z,0.4671
2023-05-19T00:59:27.071Z,0.4720
2023-05-19T01:00:35.372Z,0.4697
2023-05-19T01:01:43.625Z,0.4727
2023-05-19T01:02:51.511Z,0.4717
2023-05-19T01:03:59.653Z,0.4683
2023-05-19T01:05:07.562Z,0.4766
2023-05-19T01:06:15.794Z,0.4862
2023-05-19T01:07:23.631Z,0.4821
2023-05-19T01:08:31.812Z,0.4697
2023-05-19T01:09:39.737Z,0.4741
2023-05-19T01:10:47.820Z,0.4688
2023-05-19T01:11:55.954Z,0.4688
2023-05-19T01:13:03.820Z,0.4892
2023-05-19T01:14:11.962Z,0.5042
2023-05-19T01:15:19.958Z,0.5050
2023-05-19T01:16:28.140Z,0.4808
2023-05-19T01:17:36.370Z,0.4799
2023-05-19T01:18:44.548Z,0.4594
2023-05-19T01:19:52.469Z,0.4670
2023-05-19T01:21:00.396Z,0.4650
2023-05-19T01:22:08.434Z,0.4515
2023-05-19T01:23:16.805Z,0.4459
2023-05-19T01:24:24.710Z,0.4658
2023-05-19T01:25:32.707Z,0.4620
2023-05-19T01:26:40.715Z,0.4729
2023-05-19T01:27:48.597Z,0.4794
2023-05-19T01:28:56.678Z,0.4754
2023-05-19T01:30:04.757Z,0.4663
2023-05-19T01:31:13.072Z,0.4680
2023-05-19T01:32:21.084Z,0.4698
2023-05-19T01:33:29.232Z,0.4662
2023-05-19T01:34:37.198Z,0.4808
2023-05-19T01:35:45.170Z,0.4633
2023-05-19T01:36:53.316Z,0.4516
2023-05-19T01:38:01.493Z,0.4518
2023-05-19T01:39:09.352Z,0.4533
2023-05-19T01:40:17.412Z,0.4762
2023-05-19T01:41:25.622Z,0.4689
2023-05-19T01:42:33.453Z,0.4772
2023-05-19T01:43:41.472Z,0.4680
2023-05-19T01:44:49.547Z,0.4493
2023-05-19T01:45:57.730Z,0.4553
2023-05-19T01:47:05.704Z,0.4651
2023-05-19T01:48:13.937Z,0.4701
2023-05-19T01:49:22.051Z,0.4719
2023-05-19T01:50:30.190Z,0.4745
2023-05-19T01:51:38.068Z,0.4652
2023-05-19T01:52:46.192Z,0.4674
2023-05-19T01:53:54.198Z,0.4695
2023-05-19T01:55:02.217Z,0.4732
2023-05-19T01:56:10.335Z,0.4723
2023-05-19T01:57:18.230Z,0.4781
2023-05-19T01:58:26.298Z,0.4651
2023-05-19T01:59:34.367Z,0.4607
2023-05-19T02:00:42.536Z,0.4610
2023-05-19T02:01:50.564Z,0.4717
2023-05-19T02:02:58.725Z,0.4644
2023-05-19T02:04:06.765Z,0.4645
2023-05-19T02:05:14.975Z,0.4776
2023-05-19T02:06:22.819Z,0.4787
2023-05-19T02:07:30.971Z,0.4759
2023-05-19T02:08:38.992Z,0.4547
2023-05-19T02:09:47.051Z,0.4550
2023-05-19T02:10:55.155Z,0.4620
2023-05-19T02:12:03.070Z,0.4658
2023-05-19T02:13:11.100Z,0.4629
2023-05-19T02:14:19.168Z,0.4553
2023-05-19T02:15:27.371Z,0.4495
2023-05-19T02:16:35.448Z,0.4376
2023-05-19T02:17:43.679Z,0.4456
2023-05-19T02:18:51.622Z,0.4518
2023-05-19T02:19:59.619Z,0.4621
2023-05-19T02:21:07.881Z,0.4619
2023-05-19T02:22:15.802Z,0.4502
2023-05-19T02:23:23.813Z,0.4493
2023-05-19T02:24:31.881Z,0.4603
2023-05-19T02:25:39.943Z,0.4955
2023-05-19T02:26:47.859Z,0.4877
2023-05-19T02:27:55.980Z,0.5035
2023-05-19T02:29:04.011Z,0.4866
2023-05-19T02:30:12.459Z,0.4653
2023-05-19T02:31:20.304Z,0.4838
2023-05-19T02:32:28.351Z,0.4780
2023-05-19T02:33:36.459Z,0.4698
2023-05-19T02:34:44.465Z,0.4798
2023-05-19T02:35:52.523Z,0.4735
2023-05-19T02:37:00.728Z,0.4807
2023-05-19T02:38:08.641Z,0.4950
2023-05-19T02:39:16.732Z,0.4796
2023-05-19T02:40:24.729Z,0.4798
2023-05-19T02:41:32.693Z,0.4914
2023-05-19T02:42:40.756Z,0.4965
2023-05-19T02:43:48.807Z,0.4973
2023-05-19T02:44:57.090Z,0.5105
2023-05-19T02:46:05.118Z,0.5199
2023-05-19T02:47:13.119Z,0.5038
2023-05-19T02:48:21.077Z,0.4969
2023-05-19T02:49:29.259Z,0.4867
2023-05-19T02:50:37.343Z,0.4797
2023-05-19T02:51:45.527Z,0.4694
2023-05-19T02:52:53.498Z,0.4529
2023-05-19T02:54:01.630Z,0.4484
2023-05-19T02:55:09.559Z,0.4464
2023-05-19T02:56:17.688Z,0.4538
2023-05-19T02:57:25.572Z,0.4578
2023-05-19T02:58:33.650Z,0.4639
2023-05-19T02:59:42.102Z,0.4778
2023-05-19T03:00:49.881Z,0.4662
2023-05-19T03:01:58.015Z,0.4643
2023-05-19T03:03:06.096Z,0.4601
2023-05-19T03:04:14.082Z,0.4812
2023-05-19T03:05:22.132Z,0.4851
2023-05-19T03:06:30.212Z,0.4821
2023-05-19T03:07:38.349Z,0.4971
2023-05-19T03:08:46.306Z,0.4951
2023-05-19T03:09:54.383Z,0.4879
2023-05-19T03:11:02.328Z,0.4795
2023-05-19T03:12:10.395Z,0.4784
2023-05-19T03:13:18.446Z,0.4781
2023-05-19T03:14:26.611Z,0.4677
2023-05-19T03:15:34.695Z,0.4517
2023-05-19T03:16:42.784Z,0.4670
2023-05-19T03:17:50.933Z,0.4897
2023-05-19T03:18:58.984Z,0.4854
2023-05-19T03:20:06.931Z,0.4815
2023-05-19T03:21:14.847Z,0.4725
2023-05-19T03:22:23.010Z,0.4899
2023-05-19T03:23:31.099Z,0.4820
2023-05-19T03:24:39.201Z,0.4733
2023-05-19T03:25:47.068Z,0.4750
2023-05-19T03:26:55.160Z,0.4821
2023-05-19T03:28:03.173Z,0.4801
2023-05-19T03:29:11.476Z,0.4982
2023-05-19T03:30:19.461Z,0.4929
2023-05-19T03:31:27.504Z,0.4807
2023-05-19T03:32:35.604Z,0.4894
2023-05-19T03:33:43.853Z,0.4920
2023-05-19T03:34:51.800Z,0.4765
2023-05-19T03:35:59.786Z,0.4792
2023-05-19T03:37:07.860Z,0.4930
2023-05-19T03:38:15.871Z,0.4864
2023-05-19T03:39:23.914Z,0.4842
2023-05-19T03:40:32.136Z,0.4831
2023-05-19T03:41:39.934Z,0.4693
2023-05-19T03:42:47.963Z,0.4603
2023-05-19T03:43:56.190Z,0.4550
2023-05-19T03:45:04.226Z,0.4559
2023-05-19T03:46:12.334Z,0.4628
2023-05-19T03:47:20.452Z,0.4716
2023-05-19T03:48:28.390Z,0.4689
2023-05-19T03:49:36.442Z,0.4633
2023-05-19T03:50:44.837Z,0.4548
2023-05-19T03:51:52.637Z,0.4579
2023-05-19T03:53:00.679Z,0.4485
2023-05-19T03:54:08.672Z,0.4560
2023-05-19T03:55:16.634Z,0.4636
2023-05-19T03:56:24.678Z,0.4646
2023-05-19T03:57:32.774Z,0.4593
2023-05-19T03:58:40.969Z,0.4757
2023-05-19T03:59:49.011Z,0.4832
2023-05-19T04:00:57.054Z,0.4889
2023-05-19T04:02:05.586Z,0.5064
2023-05-19T04:03:13.265Z,0.4921
2023-05-19T04:04:21.274Z,0.4889
2023-05-19T04:05:29.301Z,0.4898
2023-05-19T04:06:37.331Z,0.4912
2023-05-19T04:07:45.623Z,0.4820
2023-05-19T04:08:53.501Z,0.4772
2023-05-19T04:10:01.423Z,0.4772
2023-05-19T04:11:09.468Z,0.4445
2023-05-19T04:12:17.552Z,0.4622
2023-05-19T04:13:25.943Z,0.4829
2023-05-19T04:14:33.829Z,0.4976
2023-05-19T04:15:41.918Z,0.4843
2023-05-19T04:16:49.905Z,0.4897
2023-05-19T04:17:58.015Z,0.4803
2023-05-19T04:19:06.149Z,0.4821
2023-05-19T04:20:14.223Z,0.4692
2023-05-19T04:21:22.153Z,0.4646
2023-05-19T04:22:30.205Z,0.4669
2023-05-19T04:23:38.477Z,0.4740
2023-05-19T04:24:46.253Z,0.4944
2023-05-19T04:25:54.330Z,0.5015
2023-05-19T04:27:02.374Z,0.5050
2023-05-19T04:28:10.527Z,0.4943
2023-05-19T04:29:18.791Z,0.4901
2023-05-19T04:30:26.767Z,0.4966
2023-05-19T04:31:34.999Z,0.4912
2023-05-19T04:32:42.845Z,0.4989
2023-05-19T04:33:50.924Z,0.4852
2023-05-19T04:34:58.961Z,0.4939
2023-05-19T04:36:07.003Z,0.4789
2023-05-19T04:37:15.146Z,0.4863
2023-05-19T04:38:23.157Z,0.4979
2023-05-19T04:39:31.070Z,0.4752
2023-05-19T04:40:39.158Z,0.4541
2023-05-19T04:41:47.242Z,0.4577
2023-05-19T04:42:55.411Z,0.4786
2023-05-19T04:44:03.457Z,0.4780
2023-05-19T04:45:11.565Z,0.4830
2023-05-19T04:46:19.600Z,0.4853
2023-05-19T04:47:27.895Z,0.4869
2023-05-19T04:48:35.745Z,0.4989
2023-05-19T04:49:43.832Z,0.5082
2023-05-19T04:50:51.965Z,0.4967
2023-05-19T04:51:59.926Z,0.4809
2023-05-19T04:53:08.037Z,0.4856
2023-05-19T04:54:15.902Z,0.4799
2023-05-19T04:55:23.966Z,0.4673
2023-05-19T04:56:32.024Z,0.4709
2023-05-19T04:57:40.245Z,0.4598
2023-05-19T04:58:48.317Z,0.4683
2023-05-19T04:59:56.578Z,0.4713
2023-05-19T05:01:04.380Z,0.4729
2023-05-19T05:02:12.607Z,0.4912
2023-05-19T05:03:20.695Z,0.4683
2023-05-19T05:04:28.617Z,0.4529
2023-05-19T05:05:36.769Z,0.4521
2023-05-19T05:06:44.689Z,0.4543
2023-05-19T05:07:52.811Z,0.4599
2023-05-19T05:09:00.699Z,0.4758
2023-05-19T05:10:08.780Z,0.4719
2023-05-19T05:11:16.815Z,0.4676
2023-05-19T05:12:25.000Z,0.4611
2023-05-19T05:13:33.082Z,0.4515
2023-05-19T05:14:41.145Z,0.4645
2023-05-19T05:15:49.210Z,0.4810
2023-05-19T05:16:57.385Z,0.4716
2023-05-19T05:18:05.381Z,0.4592
2023-05-19T05:19:13.595Z,0.4660
2023-05-19T05:20:21.528Z,0.4642
2023-05-19T05:21:29.503Z,0.4743
2023-05-19T05:22:37.555Z,0.4620
2023-05-19T05:23:45.519Z,0.4685
2023-05-19T05:24:53.554Z,0.4851
2023-05-19T05:26:01.614Z,0.4742
2023-05-19T05:27:10.095Z,0.4763
2023-05-19T05:28:17.929Z,0.4696
2023-05-19T05:29:25.986Z,0.4612
2023-05-19T05:30:33.957Z,0.4502
2023-05-19T05:31:42.094Z,0.4553
2023-05-19T05:32:50.211Z,0.4731
2023-05-19T05:33:58.217Z,0.4619
2023-05-19T05:35:06.240Z,0.4692
2023-05-19T05:36:14.434Z,0.4760
2023-05-19T05:37:22.371Z,0.4741
2023-05-19T05:38:30.304Z,0.4700
2023-05-19T05:39:38.365Z,0.4827
2023-05-19T05:40:46.395Z,0.4846
2023-05-19T05:41:54.616Z,0.4752
2023-05-19T05:43:02.641Z,0.4842
2023-05-19T05:44:10.700Z,0.4746
2023-05-19T05:45:18.816Z,0.4755
2023-05-19T05:46:27.076Z,0.4680
2023-05-19T05:47:34.913Z,0.4705
2023-05-19T05:48:43.035Z,0.4725
2023-05-19T05:49:52.995Z,0.4749
2023-05-19T05:51:03.929Z,0.4850
2023-05-19T05:52:11.836Z,0.4908
2023-05-19T05:53:19.940Z,0.4930
2023-05-19T05:54:28.014Z,0.5019
2023-05-19T05:55:36.185Z,0.4776
2023-05-19T05:56:44.239Z,0.4733
2023-05-19T05:57:52.305Z,0.4779
2023-05-19T05:59:00.414Z,0.4971
2023-05-19T06:00:08.574Z,0.5186
2023-05-19T06:01:16.506Z,0.5204
2023-05-19T06:02:24.579Z,0.4911
2023-05-19T06:03:32.708Z,0.4938
2023-05-19T06:04:40.769Z,0.4947
2023-05-19T06:05:48.777Z,0.4917
2023-05-19T06:06:56.638Z,0.5108
2023-05-19T06:08:04.780Z,0.5053
2023-05-19T06:09:12.820Z,0.4735
2023-05-19T06:10:20.942Z,0.4650
2023-05-19T06:11:29.040Z,0.4718
2023-05-19T06:12:37.100Z,0.4969
2023-05-19T06:13:45.337Z,0.4956
2023-05-19T06:14:53.197Z,0.4876
2023-05-19T06:16:02.244Z,0.4986
2023-05-19T06:17:09.329Z,0.4884
2023-05-19T06:18:17.448Z,0.4910
2023-05-19T06:19:25.640Z,0.4961
2023-05-19T06:20:33.567Z,0.4976
2023-05-19T06:21:41.415Z,0.4773
2023-05-19T06:22:49.511Z,0.4962
2023-05-19T06:23:57.730Z,0.5008
2023-05-19T06:25:05.921Z,0.4910
2023-05-19T06:26:13.803Z,0.4997
2023-05-19T06:27:21.831Z,0.4835
2023-05-19T06:28:29.967Z,0.4786
2023-05-19T06:29:38.079Z,0.4950
2023-05-19T06:30:46.052Z,0.4987
2023-05-19T06:31:54.250Z,0.4927
2023-05-19T06:33:02.177Z,0.4866
2023-05-19T06:34:10.251Z,0.4770
2023-05-19T06:35:18.193Z,0.4713
2023-05-19T06:36:26.225Z,0.4728
2023-05-19T06:37:34.301Z,0.4661
2023-05-19T06:38:42.467Z,0.4663
2023-05-19T06:39:50.505Z,0.4784
2023-05-19T06:40:58.830Z,0.4837
2023-05-19T06:42:06.671Z,0.4848
2023-05-19T06:43:14.705Z,0.4757
2023-05-19T06:44:22.752Z,0.4812
2023-05-19T06:45:30.790Z,0.4948
2023-05-19T06:46:39.204Z,0.5004
2023-05-19T06:47:46.982Z,0.5146
2023-05-19T06:48:55.170Z,0.5068
2023-05-19T06:50:02.969Z,0.4957
2023-05-19T06:51:11.027Z,0.4867
2023-05-19T06:52:19.104Z,0.4903
2023-05-19T06:53:27.276Z,0.4960
2023-05-19T06:54:35.344Z,0.5008
2023-05-19T06:55:57.540Z,0.5065
2023-05-19T06:56:56.528Z,0.5038
2023-05-19T06:58:04.394Z,0.5074
2023-05-19T06:59:12.448Z,0.5007
2023-05-19T07:00:22.894Z,0.5000
2023-05-19T07:01:33.643Z,0.5045
2023-05-19T07:02:41.660Z,0.5005
2023-05-19T07:03:49.488Z,0.4776
2023-05-19T07:04:57.486Z,0.4816
2023-05-19T07:06:07.931Z,0.4967
2023-05-19T07:07:18.544Z,0.5004
2023-05-19T07:08:26.679Z,0.4986
2023-05-19T07:09:34.932Z,0.4941
2023-05-19T07:10:42.819Z,0.4826
2023-05-19T07:11:50.851Z,0.4858
2023-05-19T07:12:59.040Z,0.4928
2023-05-19T07:14:06.900Z,0.5030
2023-05-19T07:15:14.927Z,0.5030
2023-05-19T07:16:23.037Z,0.4875
2023-05-19T07:17:31.040Z,0.4917
2023-05-19T07:18:39.145Z,0.4936
2023-05-19T07:19:47.221Z,0.4878
2023-05-19T07:20:55.214Z,0.4697
2023-05-19T07:22:03.470Z,0.4653
2023-05-19T07:23:11.477Z,0.4888
2023-05-19T07:24:19.469Z,0.4870
2023-05-19T07:25:27.552Z,0.4795
2023-05-19T07:26:35.642Z,0.4780
2023-05-19T07:27:43.768Z,0.4944
2023-05-19T07:28:51.712Z,0.4842
2023-05-19T07:29:59.812Z,0.4809
2023-05-19T07:31:07.753Z,0.5002
2023-05-19T07:32:15.876Z,0.5031
2023-05-19T07:33:23.925Z,0.4929
2023-05-19T07:34:32.074Z,0.4919
2023-05-19T07:35:40.147Z,0.5157
2023-05-19T07:36:48.182Z,0.4943
2023-05-19T07:37:56.352Z,0.4785
2023-05-19T07:39:04.344Z,0.4773
2023-05-19T07:40:12.372Z,0.4626
2023-05-19T07:41:20.387Z,0.4741
2023-05-19T07:42:28.545Z,0.4789
2023-05-19T07:43:36.598Z,0.4713
2023-05-19T07:44:44.809Z,0.4723
2023-05-19T07:45:52.776Z,0.4893
2023-05-19T07:47:00.687Z,0.4973
2023-05-19T07:48:08.987Z,0.4961
2023-05-19T07:49:16.726Z,0.4760
2023-05-19T07:50:24.792Z,0.4882
2023-05-19T07:51:32.868Z,0.4797
2023-05-19T07:52:41.151Z,0.4864
2023-05-19T07:53:49.154Z,0.4739
2023-05-19T07:54:57.144Z,0.4726
2023-05-19T07:56:05.391Z,0.4866
2023-05-19T07:57:13.376Z,0.4807
2023-05-19T07:58:21.337Z,0.4621
2023-05-19T07:59:29.386Z,0.4566
2023-05-19T08:00:37.540Z,0.4563
2023-05-19T08:01:45.519Z,0.4771
2023-05-19T08:02:53.674Z,0.4853
2023-05-19T08:04:01.580Z,0.4692
2023-05-19T08:05:09.573Z,0.4850
2023-05-19T08:06:17.674Z,0.4770
2023-05-19T08:07:26.023Z,0.4842
2023-05-19T08:08:34.084Z,0.5015
2023-05-19T08:09:41.946Z,0.4809
2023-05-19T08:10:50.058Z,0.4754
2023-05-19T08:11:58.193Z,0.4873
2023-05-19T08:13:06.102Z,0.4734
2023-05-19T08:14:14.173Z,0.4538
2023-05-19T08:15:22.308Z,0.4605
2023-05-19T08:16:30.635Z,0.4586
2023-05-19T08:17:38.319Z,0.4721
2023-05-19T08:18:46.387Z,0.4748
2023-05-19T08:19:54.332Z,0.4789
2023-05-19T08:21:02.541Z,0.4686
2023-05-19T08:22:10.615Z,0.4692
2023-05-19T08:23:18.685Z,0.4675
2023-05-19T08:24:26.792Z,0.4837
2023-05-19T08:25:34.812Z,0.4712
2023-05-19T08:26:42.879Z,0.4654
2023-05-19T08:27:51.089Z,0.4774
2023-05-19T08:28:59.029Z,0.4971
2023-05-19T08:30:07.024Z,0.4809
2023-05-19T08:31:15.247Z,0.4607
2023-05-19T08:32:23.099Z,0.4583
2023-05-19T08:33:31.083Z,0.4663
2023-05-19T08:34:39.139Z,0.4732
2023-05-19T08:35:47.489Z,0.4603
2023-05-19T08:36:55.546Z,0.4730
2023-05-19T08:38:03.453Z,0.4854
2023-05-19T08:39:11.591Z,0.4896
2023-05-19T08:40:19.656Z,0.5128
2023-05-19T08:41:27.820Z,0.5002
2023-05-19T08:42:35.767Z,0.5078
2023-05-19T08:43:43.831Z,0.5006
2023-05-19T08:44:52.187Z,0.5051
2023-05-19T08:45:59.896Z,0.5094
2023-05-19T08:47:08.021Z,0.5131
2023-05-19T08:48:16.003Z,0.4892
2023-05-19T08:49:25.570Z,0.4904
2023-05-19T08:50:32.506Z,0.4767
2023-05-19T08:51:40.155Z,0.4798
2023-05-19T08:52:51.796Z,0.4777
2023-05-19T08:54:01.288Z,0.4733
2023-05-19T08:55:09.340Z,0.4841
2023-05-19T08:56:17.331Z,0.5184
2023-05-19T08:57:25.475Z,0.5006
2023-05-19T08:58:33.515Z,0.4982
2023-05-19T08:59:41.402Z,0.4883
2023-05-19T09:00:49.517Z,0.4725
2023-05-19T09:01:57.578Z,0.4734
2023-05-19T09:04:13.911Z,0.4664
2023-05-19T09:05:21.914Z,0.4652
2023-05-19T09:06:29.921Z,0.4777
2023-05-19T09:07:38.072Z,0.4684
2023-05-19T09:08:45.998Z,0.4717
2023-05-19T09:09:54.349Z,0.4493
2023-05-19T09:11:02.171Z,0.4657
2023-05-19T09:12:10.291Z,0.5097
2023-05-19T09:13:18.255Z,0.5081
2023-05-19T09:14:26.216Z,0.5064
2023-05-19T09:15:34.602Z,0.4911
2023-05-19T09:16:42.389Z,0.4941
2023-05-19T09:17:50.640Z,0.4782
2023-05-19T09:18:58.621Z,0.4684
2023-05-19T09:20:06.680Z,0.4641
2023-05-19T09:21:14.716Z,0.4703
2023-05-19T09:22:22.836Z,0.4635
2023-05-19T09:23:30.819Z,0.4813
2023-05-19T09:24:38.863Z,0.4932
2023-05-19T09:25:46.981Z,0.4777
2023-05-19T09:26:55.756Z,0.4639
2023-05-19T09:28:07.868Z,0.4656
2023-05-19T09:29:15.853Z,0.4839
2023-05-19T09:30:23.885Z,0.4607
2023-05-19T09:31:32.161Z,0.4705
2023-05-19T09:32:40.165Z,0.4785
2023-05-19T09:33:48.281Z,0.4603
2023-05-19T09:34:56.529Z,0.4834
2023-05-19T09:36:04.320Z,0.4757
2023-05-19T09:37:12.370Z,0.4768
2023-05-19T09:38:20.564Z,0.4640
2023-05-19T09:39:28.553Z,0.4790
2023-05-19T09:40:36.607Z,0.4774
2023-05-19T09:41:44.667Z,0.4715
2023-05-19T09:42:52.572Z,0.4495
2023-05-19T09:44:00.678Z,0.4513
2023-05-19T09:45:08.678Z,0.4513
2023-05-19T09:46:16.885Z,0.4688
2023-05-19T09:47:24.903Z,0.4804
2023-05-19T09:48:32.991Z,0.4721
2023-05-19T09:49:41.279Z,0.4665
2023-05-19T09:50:49.260Z,0.4859
2023-05-19T09:51:57.195Z,0.4981
2023-05-19T09:53:05.261Z,0.4890
2023-05-19T09:54:13.385Z,0.5014
2023-05-19T09:55:21.358Z,0.4823
2023-05-19T09:56:29.442Z,0.4761
2023-05-19T09:57:37.358Z,0.4914
2023-05-19T09:58:45.414Z,0.4780
2023-05-19T09:59:53.487Z,0.4588
2023-05-19T10:01:01.631Z,0.4709
2023-05-19T10:02:09.760Z,0.4825
2023-05-19T10:03:17.828Z,0.4955
2023-05-19T10:04:25.922Z,0.4867
2023-05-19T10:05:34.320Z,0.4824
2023-05-19T10:06:42.296Z,0.4828
2023-05-19T10:07:50.044Z,0.4756
2023-05-19T10:08:58.157Z,0.4669
2023-05-19T10:10:06.175Z,0.4640
2023-05-19T10:11:14.209Z,0.4676
2023-05-19T10:12:22.159Z,0.4730
2023-05-19T10:13:30.232Z,0.4738
2023-05-19T10:14:38.275Z,0.4696
2023-05-19T10:15:57.327Z,0.4602
2023-05-19T10:16:59.481Z,0.4533
2023-05-19T10:18:07.545Z,0.4613
2023-05-19T10:19:15.548Z,0.4532
2023-05-19T10:20:23.573Z,0.4474
2023-05-19T10:21:31.667Z,0.4708
2023-05-19T10:22:39.753Z,0.4661
2023-05-19T10:23:47.895Z,0.4518
2023-05-19T10:24:55.820Z,0.4607
2023-05-19T10:26:03.754Z,0.4844
2023-05-19T10:27:11.834Z,0.4683
2023-05-19T10:28:19.921Z,0.4708
2023-05-19T10:29:28.129Z,0.4672
2023-05-19T10:30:36.110Z,0.4678
2023-05-19T10:31:44.338Z,0.4509
2023-05-19T10:32:52.308Z,0.4534
2023-05-19T10:34:00.398Z,0.4720
2023-05-19T10:35:08.460Z,0.4554
2023-05-19T10:36:16.535Z,0.4612
2023-05-19T10:37:24.538Z,0.4686
2023-05-19T10:38:32.543Z,0.4607
2023-05-19T10:39:40.657Z,0.4628
2023-05-19T10:40:48.543Z,0.4586
2023-05-19T10:41:56.629Z,0.4551
2023-05-19T10:43:04.672Z,0.4467
2023-05-19T10:44:12.916Z,0.4569
2023-05-19T10:45:21.127Z,0.4658
2023-05-19T10:46:28.959Z,0.4884
2023-05-19T10:47:37.046Z,0.4766
2023-05-19T10:48:45.125Z,0.4846
2023-05-19T10:49:53.344Z,0.4848
2023-05-19T10:51:01.272Z,0.4747
2023-05-19T10:52:09.369Z,0.4562
2023-05-19T10:53:17.349Z,0.4524
2023-05-19T10:54:25.689Z,0.4406
2023-05-19T10:55:33.525Z,0.4430
2023-05-19T10:56:41.443Z,0.4485
2023-05-19T10:57:49.510Z,0.4565
2023-05-19T10:58:57.644Z,0.4675
2023-05-19T11:00:05.692Z,0.4742
2023-05-19T11:01:13.837Z,0.4767
2023-05-19T11:02:21.807Z,0.4821
2023-05-19T11:04:37.913Z,0.4569
2023-05-19T11:05:46.011Z,0.4633
2023-05-19T11:06:54.117Z,0.4569
2023-05-19T11:08:02.201Z,0.4555
2023-05-19T11:09:10.160Z,0.4546
2023-05-19T11:10:18.133Z,0.4467
2023-05-19T11:11:26.202Z,0.4610
2023-05-19T11:12:34.210Z,0.4705
2023-05-19T11:13:42.405Z,0.4865
2023-05-19T11:14:50.451Z,0.4693
2023-05-19T11:15:58.562Z,0.4574
2023-05-19T11:17:06.728Z,0.4449
2023-05-19T11:18:14.703Z,0.4366
2023-05-19T11:19:22.886Z,0.4712
2023-05-19T11:20:30.794Z,0.4835
2023-05-19T11:21:38.962Z,0.4624
2023-05-19T11:22:46.892Z,0.4634
2023-05-19T11:23:55.121Z,0.4792
2023-05-19T11:25:02.865Z,0.4768
2023-05-19T11:26:10.961Z,0.4765
2023-05-19T11:27:19.109Z,0.4961
2023-05-19T11:28:27.277Z,0.4609
2023-05-19T11:29:35.245Z,0.4693
2023-05-19T11:30:43.347Z,0.4569
2023-05-19T11:31:51.555Z,0.4771
2023-05-19T11:32:59.442Z,0.4761
2023-05-19T11:34:07.503Z,0.4620
2023-05-19T11:35:15.668Z,0.4594
2023-05-19T11:36:23.630Z,0.4705
2023-05-19T11:37:31.675Z,0.4902
2023-05-19T11:38:39.690Z,0.4853
2023-05-19T11:39:47.689Z,0.4852
2023-05-19T11:40:55.749Z,0.4714
2023-05-19T11:42:03.824Z,0.4728
2023-05-19T11:43:11.915Z,0.4629
2023-05-19T11:44:20.007Z,0.4807
2023-05-19T11:45:28.079Z,0.4661
2023-05-19T11:46:36.472Z,0.4754
2023-05-19T11:48:00.827Z,0.4901
2023-05-19T11:48:57.393Z,0.4718
2023-05-19T11:50:05.215Z,0.4569
2023-05-19T11:51:13.335Z,0.4659
2023-05-19T11:52:21.383Z,0.4735
2023-05-19T11:53:29.246Z,0.4674
2023-05-19T11:54:37.332Z,0.4871
2023-05-19T11:55:45.803Z,0.4854
2023-05-19T11:56:53.713Z,0.4758
2023-05-19T11:58:04.649Z,0.4665
2023-05-19T11:59:14.546Z,0.4467
2023-05-19T12:00:22.573Z,0.4555
2023-05-19T12:01:30.637Z,0.4630
2023-05-19T12:02:38.864Z,0.4639
2023-05-19T12:03:46.922Z,0.4481
2023-05-19T12:04:54.963Z,0.4510
2023-05-19T12:06:02.961Z,0.4732
2023-05-19T12:07:10.847Z,0.4648
2023-05-19T12:08:18.997Z,0.4842
2023-05-19T12:09:27.030Z,0.4782
2023-05-19T12:10:35.133Z,0.4623
2023-05-19T12:11:43.207Z,0.4399
2023-05-19T12:12:51.226Z,0.4388
2023-05-19T12:13:59.325Z,0.4589
2023-05-19T12:15:07.347Z,0.4653
2023-05-19T12:16:15.522Z,0.4591
2023-05-19T12:17:23.602Z,0.4417
2023-05-19T12:18:31.520Z,0.4576
2023-05-19T12:19:39.593Z,0.4655
2023-05-19T12:20:47.776Z,0.4595
2023-05-19T12:21:55.675Z,0.4464
2023-05-19T12:23:03.850Z,0.4320
2023-05-19T12:24:11.812Z,0.4446
2023-05-19T12:25:19.857Z,0.4567
2023-05-19T12:26:28.049Z,0.4543
2023-05-19T12:27:35.971Z,0.4382
2023-05-19T12:28:44.156Z,0.4592
2023-05-19T12:29:52.170Z,0.4639
2023-05-19T12:31:00.332Z,0.4652
2023-05-19T12:32:08.425Z,0.4786
2023-05-19T12:33:16.468Z,0.4710
2023-05-19T12:34:24.417Z,0.4480
2023-05-19T12:35:32.488Z,0.4437
2023-05-19T12:36:40.494Z,0.4581
2023-05-19T12:37:48.524Z,0.4566
2023-05-19T12:38:56.560Z,0.4332
2023-05-19T12:40:04.845Z,0.4420
2023-05-19T12:41:13.023Z,0.4491
2023-05-19T12:42:20.831Z,0.4325
2023-05-19T12:43:28.962Z,0.4401
2023-05-19T12:44:36.963Z,0.4478
2023-05-19T12:45:45.129Z,0.4515
2023-05-19T12:46:53.235Z,0.4312
2023-05-19T12:48:01.372Z,0.4429
2023-05-19T12:49:09.313Z,0.4294
2023-05-19T12:50:17.390Z,0.4312
2023-05-19T12:51:25.367Z,0.4354
2023-05-19T12:52:33.385Z,0.4529
2023-05-19T12:53:41.436Z,0.4644
2023-05-19T12:54:49.629Z,0.4582
2023-05-19T12:55:57.746Z,0.4580
2023-05-19T12:57:05.913Z,0.4535
2023-05-19T12:58:13.874Z,0.4434
2023-05-19T12:59:37.093Z,0.4527
2023-05-19T13:00:34.987Z,0.4509
2023-05-19T13:01:42.912Z,0.4585
2023-05-19T13:02:51.110Z,0.4601
2023-05-19T13:03:59.206Z,0.4566
2023-05-19T13:05:06.920Z,0.4589
2023-05-19T13:06:14.991Z,0.4560
2023-05-19T13:07:23.042Z,0.4459
2023-05-19T13:08:31.469Z,0.4399
2023-05-19T13:09:39.274Z,0.4625
2023-05-19T13:10:47.589Z,0.4612
2023-05-19T13:11:55.450Z,0.4437
2023-05-19T13:13:03.552Z,0.4482
2023-05-19T13:14:11.515Z,0.4554
2023-05-19T13:15:19.595Z,0.4634
2023-05-19T13:16:27.671Z,0.4683
2023-05-19T13:17:35.768Z,0.4825
2023-05-19T13:18:43.816Z,0.4631
2023-05-19T13:19:51.824Z,0.4608
2023-05-19T13:20:59.819Z,0.4626
2023-05-19T13:22:07.951Z,0.4572
2023-05-19T13:23:16.212Z,0.4588
2023-05-19T13:24:24.336Z,0.4550
2023-05-19T13:25:32.220Z,0.4419
2023-05-19T13:26:40.265Z,0.4601
2023-05-19T13:27:48.334Z,0.4583
2023-05-19T13:28:56.361Z,0.4558
2023-05-19T13:30:04.451Z,0.4555
2023-05-19T13:31:12.533Z,0.4594
2023-05-19T13:32:20.639Z,0.4724
2023-05-19T13:33:28.504Z,0.4521
2023-05-19T13:34:36.539Z,0.4586
2023-05-19T13:35:44.636Z,0.4592
2023-05-19T13:36:52.709Z,0.4577
2023-05-19T13:38:00.897Z,0.4594
2023-05-19T13:39:09.077Z,0.4529
2023-05-19T13:40:17.042Z,0.4510
2023-05-19T13:41:25.044Z,0.4515
2023-05-19T13:42:33.148Z,0.4515
2023-05-19T13:43:41.211Z,0.4678
2023-05-19T13:44:49.237Z,0.4675
2023-05-19T13:45:57.454Z,0.4584
2023-05-19T13:47:05.347Z,0.4642
2023-05-19T13:48:13.540Z,0.4609
2023-05-19T13:49:21.315Z,0.4494
2023-05-19T13:50:29.401Z,0.4473
2023-05-19T13:51:37.512Z,0.4485
2023-05-19T13:52:45.679Z,0.4576
2023-05-19T13:53:53.652Z,0.4514
2023-05-19T13:55:01.892Z,0.4569
2023-05-19T13:56:09.803Z,0.4691
2023-05-19T13:57:17.839Z,0.4697
2023-05-19T13:58:25.979Z,0.4702
2023-05-19T13:59:33.979Z,0.4797
2023-05-19T14:00:42.040Z,0.4660
2023-05-19T14:01:50.182Z,0.4564
2023-05-19T14:02:58.482Z,0.4717
2023-05-19T14:04:07.022Z,0.4467
2023-05-19T14:05:14.190Z,0.4495
2023-05-19T14:06:22.214Z,0.4492
2023-05-19T14:07:30.417Z,0.4433
2023-05-19T14:08:38.525Z,0.4533
2023-05-19T14:09:46.531Z,0.4426
2023-05-19T14:10:54.726Z,0.4668
2023-05-19T14:12:02.619Z,0.4778